sensor_id;sensor_type;location;lat;lon;timestamp;P1;durP1;ratioP1;P2;durP2;ratioP2
2107;SDS011;1060;52.492;13.388;2023-02-02T00:01:32;11.10;;;4.30;;
2107;SDS011;1060;52.492;13.388;2023-02-02T00:03:58;13.20;;;4.77;;
2107;SDS011;1060;52.492;13.388;2023-02-02T00:06:27;9.23;;;4.43;;
2107;SDS011;1060;52.492;13.388;2023-02-02T00:08:54;10.80;;;4.20;;
2107;SDS011;1060;52.492;13.388;2023-02-02T00:11:21;10.43;;;4.20;;
2107;SDS011;1060;52.492;13.388;2023-02-02T00:13:47;12.82;;;4.55;;
2107;SDS011;1060;52.492;13.388;2023-02-02T00:18:52;7.50;;;4.17;;
2107;SDS011;1060;52.492;13.388;2023-02-02T00:21:21;18.10;;;5.88;;
2107;SDS011;1060;52.492;13.388;2023-02-02T00:23:47;8.43;;;3.70;;
2107;SDS011;1060;52.492;13.388;2023-02-02T00:26:14;12.63;;;5.33;;
2107;SDS011;1060;52.492;13.388;2023-02-02T00:28:43;7.57;;;3.07;;
2107;SDS011;1060;52.492;13.388;2023-02-02T00:31:09;13.83;;;4.20;;
2107;SDS011;1060;52.492;13.388;2023-02-02T00:33:36;10.03;;;3.70;;
2107;SDS011;1060;52.492;13.388;2023-02-02T00:36:02;12.77;;;3.33;;
2107;SDS011;1060;52.492;13.388;2023-02-02T00:38:29;12.23;;;4.37;;
2107;SDS011;1060;52.492;13.388;2023-02-02T00:40:55;9.10;;;3.20;;
2107;SDS011;1060;52.492;13.388;2023-02-02T00:43:21;15.47;;;3.90;;
2107;SDS011;1060;52.492;13.388;2023-02-02T00:45:48;22.60;;;4.70;;
2107;SDS011;1060;52.492;13.388;2023-02-02T00:48:17;20.83;;;5.40;;
2107;SDS011;1060;52.492;13.388;2023-02-02T00:50:43;8.17;;;3.90;;
2107;SDS011;1060;52.492;13.388;2023-02-02T00:53:09;10.63;;;3.53;;
2107;SDS011;1060;52.492;13.388;2023-02-02T00:55:35;10.75;;;3.80;;
2107;SDS011;1060;52.492;13.388;2023-02-02T00:58:01;17.63;;;5.00;;
2107;SDS011;1060;52.492;13.388;2023-02-02T01:00:28;16.53;;;4.67;;
2107;SDS011;1060;52.492;13.388;2023-02-02T01:02:54;15.10;;;3.83;;
2107;SDS011;1060;52.492;13.388;2023-02-02T01:05:21;15.93;;;4.20;;
2107;SDS011;1060;52.492;13.388;2023-02-02T01:07:47;9.00;;;3.67;;
2107;SDS011;1060;52.492;13.388;2023-02-02T01:10:14;9.90;;;3.47;;
2107;SDS011;1060;52.492;13.388;2023-02-02T01:12:41;8.80;;;3.60;;
2107;SDS011;1060;52.492;13.388;2023-02-02T01:15:08;6.87;;;2.63;;
2107;SDS011;1060;52.492;13.388;2023-02-02T01:17:34;14.00;;;4.78;;
2107;SDS011;1060;52.492;13.388;2023-02-02T01:20:01;13.13;;;6.23;;
2107;SDS011;1060;52.492;13.388;2023-02-02T01:22:27;12.97;;;4.03;;
2107;SDS011;1060;52.492;13.388;2023-02-02T01:24:54;13.13;;;4.15;;
2107;SDS011;1060;52.492;13.388;2023-02-02T01:27:20;10.20;;;4.50;;
2107;SDS011;1060;52.492;13.388;2023-02-02T01:29:47;21.40;;;6.10;;
2107;SDS011;1060;52.492;13.388;2023-02-02T01:32:16;14.98;;;4.88;;
2107;SDS011;1060;52.492;13.388;2023-02-02T01:34:42;14.35;;;4.53;;
2107;SDS011;1060;52.492;13.388;2023-02-02T01:37:10;13.33;;;3.90;;
2107;SDS011;1060;52.492;13.388;2023-02-02T01:39:36;13.73;;;3.75;;
2107;SDS011;1060;52.492;13.388;2023-02-02T01:42:04;12.05;;;3.90;;
2107;SDS011;1060;52.492;13.388;2023-02-02T01:47:18;10.10;;;4.55;;
2107;SDS011;1060;52.492;13.388;2023-02-02T01:49:45;14.20;;;4.53;;
2107;SDS011;1060;52.492;13.388;2023-02-02T01:52:12;14.45;;;4.53;;
2107;SDS011;1060;52.492;13.388;2023-02-02T01:54:40;13.00;;;4.23;;
2107;SDS011;1060;52.492;13.388;2023-02-02T01:57:25;9.05;;;5.10;;
2107;SDS011;1060;52.492;13.388;2023-02-02T01:59:53;9.23;;;3.53;;
2107;SDS011;1060;52.492;13.388;2023-02-02T02:02:20;19.13;;;4.18;;
2107;SDS011;1060;52.492;13.388;2023-02-02T02:04:47;13.43;;;4.13;;
2107;SDS011;1060;52.492;13.388;2023-02-02T02:07:21;10.23;;;3.75;;
2107;SDS011;1060;52.492;13.388;2023-02-02T02:09:47;15.35;;;3.55;;
2107;SDS011;1060;52.492;13.388;2023-02-02T02:12:14;19.10;;;5.05;;
2107;SDS011;1060;52.492;13.388;2023-02-02T02:14:42;19.73;;;4.88;;
2107;SDS011;1060;52.492;13.388;2023-02-02T02:34:13;9.13;;;3.90;;
2107;SDS011;1060;52.492;13.388;2023-02-02T02:37:45;8.80;;;4.83;;
2107;SDS011;1060;52.492;13.388;2023-02-02T02:39:42;12.07;;;3.22;;
2107;SDS011;1060;52.492;13.388;2023-02-02T02:42:12;7.73;;;3.30;;
2107;SDS011;1060;52.492;13.388;2023-02-02T02:44:42;10.83;;;3.80;;
2107;SDS011;1060;52.492;13.388;2023-02-02T02:47:08;19.63;;;4.20;;
2107;SDS011;1060;52.492;13.388;2023-02-02T02:49:42;12.10;;;3.57;;
2107;SDS011;1060;52.492;13.388;2023-02-02T02:52:08;15.47;;;4.63;;
2107;SDS011;1060;52.492;13.388;2023-02-02T02:54:37;12.87;;;3.37;;
2107;SDS011;1060;52.492;13.388;2023-02-02T03:05:15;11.93;;;2.97;;
2107;SDS011;1060;52.492;13.388;2023-02-02T03:07:52;13.50;;;3.00;;
2107;SDS011;1060;52.492;13.388;2023-02-02T03:10:20;16.13;;;5.60;;
2107;SDS011;1060;52.492;13.388;2023-02-02T03:12:48;22.07;;;4.43;;
2107;SDS011;1060;52.492;13.388;2023-02-02T03:15:15;9.50;;;2.63;;
2107;SDS011;1060;52.492;13.388;2023-02-02T03:17:42;10.50;;;2.83;;
2107;SDS011;1060;52.492;13.388;2023-02-02T03:20:12;9.70;;;2.83;;
2107;SDS011;1060;52.492;13.388;2023-02-02T03:22:38;18.83;;;3.47;;
2107;SDS011;1060;52.492;13.388;2023-02-02T03:25:05;11.10;;;4.40;;
2107;SDS011;1060;52.492;13.388;2023-02-02T03:27:32;7.17;;;2.80;;
2107;SDS011;1060;52.492;13.388;2023-02-02T03:29:58;7.60;;;2.73;;
2107;SDS011;1060;52.492;13.388;2023-02-02T03:32:24;10.60;;;2.50;;
2107;SDS011;1060;52.492;13.388;2023-02-02T03:34:50;4.57;;;1.50;;
2107;SDS011;1060;52.492;13.388;2023-02-02T03:37:16;3.40;;;1.40;;
2107;SDS011;1060;52.492;13.388;2023-02-02T03:39:43;6.40;;;2.37;;
2107;SDS011;1060;52.492;13.388;2023-02-02T03:42:09;8.50;;;3.07;;
2107;SDS011;1060;52.492;13.388;2023-02-02T03:44:35;9.83;;;2.77;;
2107;SDS011;1060;52.492;13.388;2023-02-02T03:47:01;5.03;;;2.83;;
2107;SDS011;1060;52.492;13.388;2023-02-02T03:49:27;11.40;;;3.07;;
2107;SDS011;1060;52.492;13.388;2023-02-02T03:51:53;8.90;;;3.00;;
2107;SDS011;1060;52.492;13.388;2023-02-02T03:54:20;12.50;;;3.80;;
2107;SDS011;1060;52.492;13.388;2023-02-02T03:56:46;13.20;;;3.30;;
2107;SDS011;1060;52.492;13.388;2023-02-02T03:59:12;10.20;;;4.43;;
2107;SDS011;1060;52.492;13.388;2023-02-02T04:01:38;10.53;;;4.13;;
2107;SDS011;1060;52.492;13.388;2023-02-02T04:04:04;8.87;;;2.80;;
2107;SDS011;1060;52.492;13.388;2023-02-02T04:06:30;8.13;;;2.37;;
2107;SDS011;1060;52.492;13.388;2023-02-02T04:08:57;7.70;;;2.42;;
2107;SDS011;1060;52.492;13.388;2023-02-02T04:11:23;5.43;;;2.45;;
2107;SDS011;1060;52.492;13.388;2023-02-02T04:13:49;3.93;;;1.60;;
2107;SDS011;1060;52.492;13.388;2023-02-02T04:16:15;3.37;;;1.70;;
2107;SDS011;1060;52.492;13.388;2023-02-02T04:18:41;4.45;;;2.45;;
2107;SDS011;1060;52.492;13.388;2023-02-02T04:21:07;5.07;;;2.73;;
2107;SDS011;1060;52.492;13.388;2023-02-02T04:23:37;9.13;;;3.10;;
2107;SDS011;1060;52.492;13.388;2023-02-02T04:26:03;4.13;;;1.87;;
2107;SDS011;1060;52.492;13.388;2023-02-02T04:28:30;5.30;;;3.33;;
2107;SDS011;1060;52.492;13.388;2023-02-02T04:30:57;8.10;;;2.20;;
2107;SDS011;1060;52.492;13.388;2023-02-02T04:33:23;8.53;;;3.13;;
2107;SDS011;1060;52.492;13.388;2023-02-02T04:35:50;9.07;;;2.10;;
2107;SDS011;1060;52.492;13.388;2023-02-02T04:38:16;11.43;;;5.57;;
2107;SDS011;1060;52.492;13.388;2023-02-02T04:40:44;9.83;;;2.67;;
2107;SDS011;1060;52.492;13.388;2023-02-02T04:43:10;5.40;;;2.17;;
2107;SDS011;1060;52.492;13.388;2023-02-02T04:45:36;5.03;;;3.20;;
2107;SDS011;1060;52.492;13.388;2023-02-02T04:48:05;10.87;;;2.70;;
2107;SDS011;1060;52.492;13.388;2023-02-02T04:50:34;7.03;;;2.97;;
2107;SDS011;1060;52.492;13.388;2023-02-02T04:53:01;8.85;;;3.55;;
2107;SDS011;1060;52.492;13.388;2023-02-02T04:55:28;12.73;;;2.35;;
2107;SDS011;1060;52.492;13.388;2023-02-02T04:57:54;9.50;;;2.47;;
2107;SDS011;1060;52.492;13.388;2023-02-02T05:00:21;7.30;;;2.20;;
2107;SDS011;1060;52.492;13.388;2023-02-02T05:02:47;15.33;;;2.77;;
2107;SDS011;1060;52.492;13.388;2023-02-02T05:05:13;4.27;;;2.97;;
2107;SDS011;1060;52.492;13.388;2023-02-02T05:07:39;7.77;;;2.00;;
2107;SDS011;1060;52.492;13.388;2023-02-02T05:10:06;6.63;;;2.83;;
2107;SDS011;1060;52.492;13.388;2023-02-02T05:12:33;5.47;;;1.93;;
2107;SDS011;1060;52.492;13.388;2023-02-02T05:14:59;4.20;;;2.27;;
2107;SDS011;1060;52.492;13.388;2023-02-02T05:17:27;8.98;;;2.20;;
2107;SDS011;1060;52.492;13.388;2023-02-02T05:19:53;12.57;;;2.20;;
2107;SDS011;1060;52.492;13.388;2023-02-02T05:22:19;6.57;;;2.53;;
2107;SDS011;1060;52.492;13.388;2023-02-02T05:24:46;4.90;;;4.22;;
2107;SDS011;1060;52.492;13.388;2023-02-02T05:27:12;10.40;;;2.20;;
2107;SDS011;1060;52.492;13.388;2023-02-02T05:29:38;8.30;;;3.67;;
2107;SDS011;1060;52.492;13.388;2023-02-02T05:32:04;5.17;;;2.20;;
2107;SDS011;1060;52.492;13.388;2023-02-02T05:34:30;6.53;;;2.72;;
2107;SDS011;1060;52.492;13.388;2023-02-02T05:36:59;5.63;;;2.83;;
2107;SDS011;1060;52.492;13.388;2023-02-02T05:39:25;8.02;;;2.45;;
2107;SDS011;1060;52.492;13.388;2023-02-02T05:41:51;4.83;;;2.70;;
2107;SDS011;1060;52.492;13.388;2023-02-02T05:44:17;2.90;;;2.15;;
2107;SDS011;1060;52.492;13.388;2023-02-02T05:46:43;3.42;;;2.22;;
2107;SDS011;1060;52.492;13.388;2023-02-02T05:49:12;6.97;;;3.10;;
2107;SDS011;1060;52.492;13.388;2023-02-02T05:51:42;6.80;;;2.30;;
2107;SDS011;1060;52.492;13.388;2023-02-02T05:54:09;13.70;;;3.60;;
2107;SDS011;1060;52.492;13.388;2023-02-02T05:56:36;7.10;;;2.75;;
2107;SDS011;1060;52.492;13.388;2023-02-02T05:59:02;13.57;;;3.07;;
2107;SDS011;1060;52.492;13.388;2023-02-02T06:01:32;5.50;;;2.47;;
2107;SDS011;1060;52.492;13.388;2023-02-02T06:03:58;5.82;;;2.97;;
2107;SDS011;1060;52.492;13.388;2023-02-02T06:06:25;5.23;;;1.83;;
2107;SDS011;1060;52.492;13.388;2023-02-02T06:08:51;8.27;;;3.13;;
2107;SDS011;1060;52.492;13.388;2023-02-02T06:11:20;6.40;;;2.42;;
2107;SDS011;1060;52.492;13.388;2023-02-02T06:13:48;5.77;;;2.73;;
2107;SDS011;1060;52.492;13.388;2023-02-02T06:16:14;14.30;;;3.25;;
2107;SDS011;1060;52.492;13.388;2023-02-02T06:18:41;8.87;;;2.37;;
2107;SDS011;1060;52.492;13.388;2023-02-02T06:21:07;9.30;;;3.80;;
2107;SDS011;1060;52.492;13.388;2023-02-02T06:23:33;8.10;;;4.17;;
2107;SDS011;1060;52.492;13.388;2023-02-02T06:25:59;7.43;;;2.70;;
2107;SDS011;1060;52.492;13.388;2023-02-02T06:28:28;6.70;;;3.03;;
2107;SDS011;1060;52.492;13.388;2023-02-02T06:30:54;7.03;;;2.83;;
2107;SDS011;1060;52.492;13.388;2023-02-02T06:33:20;7.33;;;2.53;;
2107;SDS011;1060;52.492;13.388;2023-02-02T06:35:46;4.63;;;1.93;;
2107;SDS011;1060;52.492;13.388;2023-02-02T06:38:12;4.93;;;2.30;;
2107;SDS011;1060;52.492;13.388;2023-02-02T06:40:39;7.55;;;3.30;;
2107;SDS011;1060;52.492;13.388;2023-02-02T06:43:05;5.87;;;2.30;;
2107;SDS011;1060;52.492;13.388;2023-02-02T06:45:33;4.67;;;2.20;;
2107;SDS011;1060;52.492;13.388;2023-02-02T06:48:04;9.60;;;4.17;;
2107;SDS011;1060;52.492;13.388;2023-02-02T06:50:35;11.85;;;2.58;;
2107;SDS011;1060;52.492;13.388;2023-02-02T06:53:02;9.80;;;2.90;;
2107;SDS011;1060;52.492;13.388;2023-02-02T06:55:29;11.55;;;3.65;;
2107;SDS011;1060;52.492;13.388;2023-02-02T06:57:58;8.77;;;2.70;;
2107;SDS011;1060;52.492;13.388;2023-02-02T07:00:25;7.82;;;3.20;;
2107;SDS011;1060;52.492;13.388;2023-02-02T07:02:51;9.23;;;3.05;;
2107;SDS011;1060;52.492;13.388;2023-02-02T07:05:18;8.00;;;4.03;;
2107;SDS011;1060;52.492;13.388;2023-02-02T07:07:45;9.53;;;3.10;;
2107;SDS011;1060;52.492;13.388;2023-02-02T07:10:12;6.57;;;2.43;;
2107;SDS011;1060;52.492;13.388;2023-02-02T07:12:38;6.88;;;3.50;;
2107;SDS011;1060;52.492;13.388;2023-02-02T07:15:05;3.63;;;2.60;;
2107;SDS011;1060;52.492;13.388;2023-02-02T07:17:31;6.50;;;2.33;;
2107;SDS011;1060;52.492;13.388;2023-02-02T07:19:58;7.93;;;3.90;;
2107;SDS011;1060;52.492;13.388;2023-02-02T07:22:24;6.00;;;3.03;;
2107;SDS011;1060;52.492;13.388;2023-02-02T07:24:50;13.32;;;2.97;;
2107;SDS011;1060;52.492;13.388;2023-02-02T07:27:16;12.23;;;4.40;;
2107;SDS011;1060;52.492;13.388;2023-02-02T07:29:43;6.75;;;2.55;;
2107;SDS011;1060;52.492;13.388;2023-02-02T07:32:09;14.40;;;5.17;;
2107;SDS011;1060;52.492;13.388;2023-02-02T07:34:37;14.73;;;3.80;;
2107;SDS011;1060;52.492;13.388;2023-02-02T07:37:03;9.30;;;3.20;;
2107;SDS011;1060;52.492;13.388;2023-02-02T07:39:29;13.33;;;4.53;;
2107;SDS011;1060;52.492;13.388;2023-02-02T07:41:56;8.82;;;4.18;;
2107;SDS011;1060;52.492;13.388;2023-02-02T07:44:29;10.15;;;3.13;;
2107;SDS011;1060;52.492;13.388;2023-02-02T07:46:56;12.93;;;5.80;;
2107;SDS011;1060;52.492;13.388;2023-02-02T07:49:22;16.07;;;5.30;;
2107;SDS011;1060;52.492;13.388;2023-02-02T07:51:48;7.77;;;2.77;;
2107;SDS011;1060;52.492;13.388;2023-02-02T07:54:14;11.85;;;2.55;;
2107;SDS011;1060;52.492;13.388;2023-02-02T07:56:43;7.83;;;2.50;;
2107;SDS011;1060;52.492;13.388;2023-02-02T07:59:09;7.90;;;4.95;;
2107;SDS011;1060;52.492;13.388;2023-02-02T08:01:36;7.83;;;3.10;;
2107;SDS011;1060;52.492;13.388;2023-02-02T08:04:02;6.60;;;3.50;;
2107;SDS011;1060;52.492;13.388;2023-02-02T08:06:29;8.17;;;3.73;;
2107;SDS011;1060;52.492;13.388;2023-02-02T08:08:57;6.00;;;3.00;;
2107;SDS011;1060;52.492;13.388;2023-02-02T08:11:23;9.00;;;3.67;;
2107;SDS011;1060;52.492;13.388;2023-02-02T08:13:51;13.00;;;4.00;;
2107;SDS011;1060;52.492;13.388;2023-02-02T08:16:17;8.40;;;4.10;;
2107;SDS011;1060;52.492;13.388;2023-02-02T08:18:44;16.90;;;4.47;;
2107;SDS011;1060;52.492;13.388;2023-02-02T08:21:10;9.57;;;4.83;;
2107;SDS011;1060;52.492;13.388;2023-02-02T08:23:37;7.37;;;3.70;;
2107;SDS011;1060;52.492;13.388;2023-02-02T08:29:00;16.27;;;4.03;;
2107;SDS011;1060;52.492;13.388;2023-02-02T08:31:28;12.37;;;2.90;;
2107;SDS011;1060;52.492;13.388;2023-02-02T08:33:55;9.57;;;3.63;;
2107;SDS011;1060;52.492;13.388;2023-02-02T08:36:23;16.33;;;4.65;;
2107;SDS011;1060;52.492;13.388;2023-02-02T08:38:49;10.55;;;3.22;;
2107;SDS011;1060;52.492;13.388;2023-02-02T08:41:16;7.33;;;3.83;;
2107;SDS011;1060;52.492;13.388;2023-02-02T08:43:43;14.07;;;3.87;;
2107;SDS011;1060;52.492;13.388;2023-02-02T08:46:11;7.97;;;3.13;;
2107;SDS011;1060;52.492;13.388;2023-02-02T08:48:37;7.17;;;3.10;;
2107;SDS011;1060;52.492;13.388;2023-02-02T08:51:07;7.97;;;2.80;;
2107;SDS011;1060;52.492;13.388;2023-02-02T08:53:34;12.20;;;3.70;;
2107;SDS011;1060;52.492;13.388;2023-02-02T08:56:01;7.90;;;2.90;;
2107;SDS011;1060;52.492;13.388;2023-02-02T08:58:28;11.67;;;3.40;;
2107;SDS011;1060;52.492;13.388;2023-02-02T09:01:02;6.20;;;1.97;;
2107;SDS011;1060;52.492;13.388;2023-02-02T09:03:30;9.20;;;2.60;;
2107;SDS011;1060;52.492;13.388;2023-02-02T09:05:56;14.03;;;5.50;;
2107;SDS011;1060;52.492;13.388;2023-02-02T09:08:25;10.73;;;4.93;;
2107;SDS011;1060;52.492;13.388;2023-02-02T09:10:52;3.00;;;1.90;;
2107;SDS011;1060;52.492;13.388;2023-02-02T09:13:18;5.67;;;2.93;;
2107;SDS011;1060;52.492;13.388;2023-02-02T09:15:44;4.10;;;2.50;;
2107;SDS011;1060;52.492;13.388;2023-02-02T09:18:12;4.83;;;3.10;;
2107;SDS011;1060;52.492;13.388;2023-02-02T09:20:39;5.93;;;2.93;;
2107;SDS011;1060;52.492;13.388;2023-02-02T09:23:07;10.93;;;3.50;;
2107;SDS011;1060;52.492;13.388;2023-02-02T09:25:34;6.27;;;2.70;;
2107;SDS011;1060;52.492;13.388;2023-02-02T09:28:00;9.73;;;2.77;;
2107;SDS011;1060;52.492;13.388;2023-02-02T09:30:48;10.47;;;2.83;;
2107;SDS011;1060;52.492;13.388;2023-02-02T09:40:42;5.27;;;2.60;;
2107;SDS011;1060;52.492;13.388;2023-02-02T09:46:07;8.47;;;2.93;;
2107;SDS011;1060;52.492;13.388;2023-02-02T09:48:58;6.80;;;4.37;;
2107;SDS011;1060;52.492;13.388;2023-02-02T09:51:29;5.53;;;2.90;;
2107;SDS011;1060;52.492;13.388;2023-02-02T09:56:52;6.00;;;1.90;;
2107;SDS011;1060;52.492;13.388;2023-02-02T09:59:22;15.30;;;3.73;;
2107;SDS011;1060;52.492;13.388;2023-02-02T10:01:50;5.67;;;2.10;;
2107;SDS011;1060;52.492;13.388;2023-02-02T10:06:59;8.80;;;2.40;;
2107;SDS011;1060;52.492;13.388;2023-02-02T10:19:11;3.27;;;2.67;;
2107;SDS011;1060;52.492;13.388;2023-02-02T10:21:45;14.47;;;2.77;;
2107;SDS011;1060;52.492;13.388;2023-02-02T10:24:23;12.03;;;2.90;;
2107;SDS011;1060;52.492;13.388;2023-02-02T10:26:53;4.77;;;2.00;;
2107;SDS011;1060;52.492;13.388;2023-02-02T10:33:28;9.83;;;2.97;;
2107;SDS011;1060;52.492;13.388;2023-02-02T10:45:07;16.53;;;3.33;;
2107;SDS011;1060;52.492;13.388;2023-02-02T10:47:54;4.53;;;1.90;;
2107;SDS011;1060;52.492;13.388;2023-02-02T10:50:35;4.63;;;1.87;;
2107;SDS011;1060;52.492;13.388;2023-02-02T10:53:14;7.80;;;1.70;;
2107;SDS011;1060;52.492;13.388;2023-02-02T10:56:09;3.20;;;1.73;;
2107;SDS011;1060;52.492;13.388;2023-02-02T11:01:29;3.67;;;1.70;;
2107;SDS011;1060;52.492;13.388;2023-02-02T11:03:55;6.40;;;2.50;;
2107;SDS011;1060;52.492;13.388;2023-02-02T11:06:40;5.13;;;1.77;;
2107;SDS011;1060;52.492;13.388;2023-02-02T11:09:20;7.60;;;2.73;;
2107;SDS011;1060;52.492;13.388;2023-02-02T11:11:53;7.60;;;2.13;;
2107;SDS011;1060;52.492;13.388;2023-02-02T11:14:36;6.10;;;2.37;;
2107;SDS011;1060;52.492;13.388;2023-02-02T11:17:10;8.57;;;2.70;;
2107;SDS011;1060;52.492;13.388;2023-02-02T11:19:42;5.60;;;1.83;;
2107;SDS011;1060;52.492;13.388;2023-02-02T11:22:36;6.30;;;1.87;;
2107;SDS011;1060;52.492;13.388;2023-02-02T11:25:24;1.97;;;1.30;;
2107;SDS011;1060;52.492;13.388;2023-02-02T11:28:29;6.00;;;1.90;;
2107;SDS011;1060;52.492;13.388;2023-02-02T11:31:08;4.10;;;2.10;;
2107;SDS011;1060;52.492;13.388;2023-02-02T11:33:46;5.83;;;2.03;;
2107;SDS011;1060;52.492;13.388;2023-02-02T11:36:24;3.87;;;2.33;;
2107;SDS011;1060;52.492;13.388;2023-02-02T11:41:41;5.80;;;2.10;;
2107;SDS011;1060;52.492;13.388;2023-02-02T11:47:14;5.87;;;1.90;;
2107;SDS011;1060;52.492;13.388;2023-02-02T11:49:48;3.90;;;2.13;;
2107;SDS011;1060;52.492;13.388;2023-02-02T11:52:20;3.70;;;1.30;;
2107;SDS011;1060;52.492;13.388;2023-02-02T11:54:56;13.13;;;2.97;;
2107;SDS011;1060;52.492;13.388;2023-02-02T11:57:29;5.53;;;2.13;;
2107;SDS011;1060;52.492;13.388;2023-02-02T12:02:58;9.47;;;2.40;;
2107;SDS011;1060;52.492;13.388;2023-02-02T12:05:33;4.13;;;1.53;;
2107;SDS011;1060;52.492;13.388;2023-02-02T12:08:10;9.00;;;2.40;;
2107;SDS011;1060;52.492;13.388;2023-02-02T12:10:49;9.40;;;3.30;;
2107;SDS011;1060;52.492;13.388;2023-02-02T12:13:27;9.97;;;2.87;;
2107;SDS011;1060;52.492;13.388;2023-02-02T12:16:15;5.43;;;2.73;;
2107;SDS011;1060;52.492;13.388;2023-02-02T12:21:37;5.53;;;2.83;;
2107;SDS011;1060;52.492;13.388;2023-02-02T12:24:13;4.43;;;1.73;;
2107;SDS011;1060;52.492;13.388;2023-02-02T12:26:46;3.95;;;2.15;;
2107;SDS011;1060;52.492;13.388;2023-02-02T12:29:20;6.25;;;2.72;;
2107;SDS011;1060;52.492;13.388;2023-02-02T12:32:10;5.85;;;2.38;;
2107;SDS011;1060;52.492;13.388;2023-02-02T12:40:36;2.65;;;1.60;;
2107;SDS011;1060;52.492;13.388;2023-02-02T12:43:13;5.03;;;2.10;;
2107;SDS011;1060;52.492;13.388;2023-02-02T13:42:03;5.37;;;2.87;;
2107;SDS011;1060;52.492;13.388;2023-02-02T13:52:50;7.97;;;2.03;;
2107;SDS011;1060;52.492;13.388;2023-02-02T14:02:55;5.83;;;1.63;;
2107;SDS011;1060;52.492;13.388;2023-02-02T14:05:42;5.53;;;1.50;;
2107;SDS011;1060;52.492;13.388;2023-02-02T14:11:51;3.30;;;1.80;;
2107;SDS011;1060;52.492;13.388;2023-02-02T14:14:36;4.60;;;2.70;;
2107;SDS011;1060;52.492;13.388;2023-02-02T14:17:48;5.53;;;2.10;;
2107;SDS011;1060;52.492;13.388;2023-02-02T14:26:06;6.83;;;2.33;;
2107;SDS011;1060;52.492;13.388;2023-02-02T14:28:40;6.83;;;2.10;;
2107;SDS011;1060;52.492;13.388;2023-02-02T14:34:38;5.90;;;2.33;;
2107;SDS011;1060;52.492;13.388;2023-02-02T14:42:29;2.60;;;1.50;;
2107;SDS011;1060;52.492;13.388;2023-02-02T14:48:27;3.20;;;1.50;;
2107;SDS011;1060;52.492;13.388;2023-02-02T14:50:57;4.50;;;1.90;;
2107;SDS011;1060;52.492;13.388;2023-02-02T15:00:29;4.60;;;1.33;;
2107;SDS011;1060;52.492;13.388;2023-02-02T15:03:45;4.23;;;2.17;;
2107;SDS011;1060;52.492;13.388;2023-02-02T15:06:50;3.50;;;1.73;;
2107;SDS011;1060;52.492;13.388;2023-02-02T15:39:53;3.23;;;1.57;;
2107;SDS011;1060;52.492;13.388;2023-02-02T15:42:23;6.20;;;2.30;;
2107;SDS011;1060;52.492;13.388;2023-02-02T15:47:55;3.33;;;1.88;;
2107;SDS011;1060;52.492;13.388;2023-02-02T15:50:22;3.03;;;2.10;;
2107;SDS011;1060;52.492;13.388;2023-02-02T15:52:50;2.20;;;1.50;;
2107;SDS011;1060;52.492;13.388;2023-02-02T15:55:21;2.00;;;1.70;;
2107;SDS011;1060;52.492;13.388;2023-02-02T15:57:47;3.17;;;1.35;;
2107;SDS011;1060;52.492;13.388;2023-02-02T16:00:35;3.85;;;1.98;;
2107;SDS011;1060;52.492;13.388;2023-02-02T16:03:15;4.03;;;2.00;;
2107;SDS011;1060;52.492;13.388;2023-02-02T16:05:49;2.53;;;1.30;;
2107;SDS011;1060;52.492;13.388;2023-02-02T16:08:28;3.93;;;1.50;;
2107;SDS011;1060;52.492;13.388;2023-02-02T16:11:12;3.35;;;2.17;;
2107;SDS011;1060;52.492;13.388;2023-02-02T16:16:48;4.53;;;2.43;;
2107;SDS011;1060;52.492;13.388;2023-02-02T16:19:17;8.30;;;5.17;;
2107;SDS011;1060;52.492;13.388;2023-02-02T16:21:52;4.80;;;2.25;;
2107;SDS011;1060;52.492;13.388;2023-02-02T16:27:05;4.00;;;2.75;;
2107;SDS011;1060;52.492;13.388;2023-02-02T16:29:38;4.67;;;3.40;;
2107;SDS011;1060;52.492;13.388;2023-02-02T16:32:04;5.97;;;2.50;;
2107;SDS011;1060;52.492;13.388;2023-02-02T16:34:42;3.72;;;3.08;;
2107;SDS011;1060;52.492;13.388;2023-02-02T16:37:23;5.35;;;2.25;;
2107;SDS011;1060;52.492;13.388;2023-02-02T16:39:52;1.90;;;1.80;;
2107;SDS011;1060;52.492;13.388;2023-02-02T16:44:54;3.17;;;2.33;;
2107;SDS011;1060;52.492;13.388;2023-02-02T16:52:57;3.92;;;3.40;;
2107;SDS011;1060;52.492;13.388;2023-02-02T16:55:21;5.28;;;2.60;;
2107;SDS011;1060;52.492;13.388;2023-02-02T16:57:53;5.07;;;3.45;;
2107;SDS011;1060;52.492;13.388;2023-02-02T17:02:47;4.82;;;2.90;;
2107;SDS011;1060;52.492;13.388;2023-02-02T17:05:18;2.72;;;2.25;;
2107;SDS011;1060;52.492;13.388;2023-02-02T17:07:55;7.38;;;2.50;;
2107;SDS011;1060;52.492;13.388;2023-02-02T17:10:37;4.03;;;2.95;;
2107;SDS011;1060;52.492;13.388;2023-02-02T17:15:52;6.88;;;2.85;;
2107;SDS011;1060;52.492;13.388;2023-02-02T17:18:25;6.85;;;3.38;;
2107;SDS011;1060;52.492;13.388;2023-02-02T17:20:52;2.55;;;2.35;;
2107;SDS011;1060;52.492;13.388;2023-02-02T17:23:23;2.83;;;2.08;;
2107;SDS011;1060;52.492;13.388;2023-02-02T17:25:50;4.75;;;2.08;;
2107;SDS011;1060;52.492;13.388;2023-02-02T17:28:18;6.10;;;2.45;;
2107;SDS011;1060;52.492;13.388;2023-02-02T17:30:46;9.80;;;2.30;;
2107;SDS011;1060;52.492;13.388;2023-02-02T17:33:18;7.32;;;3.53;;
2107;SDS011;1060;52.492;13.388;2023-02-02T17:35:45;2.70;;;2.50;;
2107;SDS011;1060;52.492;13.388;2023-02-02T18:17:39;5.10;;;3.45;;
2107;SDS011;1060;52.492;13.388;2023-02-02T18:24:53;4.45;;;2.88;;
2107;SDS011;1060;52.492;13.388;2023-02-02T18:46:16;48.45;;;33.20;;
2107;SDS011;1060;52.492;13.388;2023-02-02T18:48:51;17.50;;;13.30;;
2107;SDS011;1060;52.492;13.388;2023-02-02T18:51:18;35.10;;;24.08;;
2107;SDS011;1060;52.492;13.388;2023-02-02T18:53:48;18.08;;;14.07;;
2107;SDS011;1060;52.492;13.388;2023-02-02T18:56:25;15.40;;;9.77;;
2107;SDS011;1060;52.492;13.388;2023-02-02T18:58:54;15.85;;;7.53;;
2107;SDS011;1060;52.492;13.388;2023-02-02T19:01:23;10.77;;;6.50;;
2107;SDS011;1060;52.492;13.388;2023-02-02T19:03:54;7.72;;;6.45;;
2107;SDS011;1060;52.492;13.388;2023-02-02T19:06:27;9.57;;;5.35;;
2107;SDS011;1060;52.492;13.388;2023-02-02T19:09:20;6.50;;;5.35;;
2107;SDS011;1060;52.492;13.388;2023-02-02T19:11:47;10.10;;;6.25;;
2107;SDS011;1060;52.492;13.388;2023-02-02T19:14:31;16.27;;;11.73;;
2107;SDS011;1060;52.492;13.388;2023-02-02T19:19:54;12.70;;;7.07;;
2107;SDS011;1060;52.492;13.388;2023-02-02T19:22:23;12.82;;;6.80;;
2107;SDS011;1060;52.492;13.388;2023-02-02T19:24:58;8.35;;;7.38;;
2107;SDS011;1060;52.492;13.388;2023-02-02T19:27:28;20.05;;;15.05;;
2107;SDS011;1060;52.492;13.388;2023-02-02T19:29:56;9.75;;;6.97;;
2107;SDS011;1060;52.492;13.388;2023-02-02T19:32:30;18.50;;;13.02;;
2107;SDS011;1060;52.492;13.388;2023-02-02T19:34:58;29.35;;;22.00;;
2107;SDS011;1060;52.492;13.388;2023-02-02T19:37:31;9.52;;;7.10;;
2107;SDS011;1060;52.492;13.388;2023-02-02T19:42:40;7.85;;;6.82;;
2107;SDS011;1060;52.492;13.388;2023-02-02T19:45:21;11.77;;;6.90;;
2107;SDS011;1060;52.492;13.388;2023-02-02T19:47:57;18.45;;;13.00;;
2107;SDS011;1060;52.492;13.388;2023-02-02T19:50:35;16.83;;;8.85;;
2107;SDS011;1060;52.492;13.388;2023-02-02T19:55:58;11.60;;;8.02;;
2107;SDS011;1060;52.492;13.388;2023-02-02T19:58:30;19.48;;;12.90;;
2107;SDS011;1060;52.492;13.388;2023-02-02T20:01:09;12.80;;;10.20;;
2107;SDS011;1060;52.492;13.388;2023-02-02T20:03:40;15.77;;;13.98;;
2107;SDS011;1060;52.492;13.388;2023-02-02T20:06:16;12.82;;;8.75;;
2107;SDS011;1060;52.492;13.388;2023-02-02T20:08:45;11.35;;;8.68;;
2107;SDS011;1060;52.492;13.388;2023-02-02T20:13:44;19.23;;;14.60;;
2107;SDS011;1060;52.492;13.388;2023-02-02T20:16:14;29.00;;;22.90;;
2107;SDS011;1060;52.492;13.388;2023-02-02T20:18:52;20.05;;;13.82;;
2107;SDS011;1060;52.492;13.388;2023-02-02T20:21:21;23.52;;;21.02;;
2107;SDS011;1060;52.492;13.388;2023-02-02T20:23:48;18.75;;;12.85;;
2107;SDS011;1060;52.492;13.388;2023-02-02T20:28:50;12.60;;;10.07;;
2107;SDS011;1060;52.492;13.388;2023-02-02T20:31:18;15.70;;;11.80;;
2107;SDS011;1060;52.492;13.388;2023-02-02T20:33:47;17.08;;;15.38;;
2107;SDS011;1060;52.492;13.388;2023-02-02T20:40:03;12.75;;;10.43;;